sensor_id;sensor_type;location;lat;lon;timestamp;P1;durP1;ratioP1;P2;durP2;ratioP2
21773;SDS011;16087;51.662;6.458;2022-07-30T06:06:45;24.13;;;12.18;;
21773;SDS011;16087;51.662;6.458;2022-07-30T06:13:25;22.13;;;13.02;;
21773;SDS011;16087;51.662;6.458;2022-07-30T06:20:06;19.23;;;12.38;;
21773;SDS011;16087;51.662;6.458;2022-07-30T06:26:48;20.15;;;11.85;;
21773;SDS011;16087;51.662;6.458;2022-07-30T06:33:28;22.27;;;11.32;;
21773;SDS011;16087;51.662;6.458;2022-07-30T06:40:09;21.40;;;11.07;;
21773;SDS011;16087;51.662;6.458;2022-07-30T06:46:50;19.48;;;10.40;;
21773;SDS011;16087;51.662;6.458;2022-07-30T06:53:31;15.80;;;9.32;;
21773;SDS011;16087;51.662;6.458;2022-07-30T07:00:12;15.15;;;8.82;;
21773;SDS011;16087;51.662;6.458;2022-07-30T07:06:52;14.13;;;7.97;;
21773;SDS011;16087;51.662;6.458;2022-07-30T07:13:33;12.30;;;7.70;;
21773;SDS011;16087;51.662;6.458;2022-07-30T07:20:14;15.40;;;8.55;;
21773;SDS011;16087;51.662;6.458;2022-07-30T07:26:55;17.17;;;8.00;;
21773;SDS011;16087;51.662;6.458;2022-07-30T07:33:36;17.15;;;7.10;;
21773;SDS011;16087;51.662;6.458;2022-07-30T07:40:19;12.70;;;5.72;;
21773;SDS011;16087;51.662;6.458;2022-07-30T07:47:00;15.50;;;6.43;;
21773;SDS011;16087;51.662;6.458;2022-07-30T07:53:40;12.63;;;5.90;;
21773;SDS011;16087;51.662;6.458;2022-07-30T08:00:21;14.40;;;6.10;;
21773;SDS011;16087;51.662;6.458;2022-07-30T08:07:02;13.55;;;5.65;;
21773;SDS011;16087;51.662;6.458;2022-07-30T08:13:43;11.90;;;5.20;;
21773;SDS011;16087;51.662;6.458;2022-07-30T08:20:23;11.20;;;4.70;;
21773;SDS011;16087;51.662;6.458;2022-07-30T08:27:04;13.27;;;3.95;;
21773;SDS011;16087;51.662;6.458;2022-07-30T08:33:45;12.18;;;3.47;;
21773;SDS011;16087;51.662;6.458;2022-07-30T08:40:25;8.88;;;3.17;;
21773;SDS011;16087;51.662;6.458;2022-07-30T08:47:06;6.68;;;3.08;;
21773;SDS011;16087;51.662;6.458;2022-07-30T08:53:49;6.50;;;2.85;;
21773;SDS011;16087;51.662;6.458;2022-07-30T09:00:30;11.32;;;3.78;;
21773;SDS011;16087;51.662;6.458;2022-07-30T09:07:10;7.50;;;2.90;;
21773;SDS011;16087;51.662;6.458;2022-07-30T09:13:51;8.23;;;2.88;;
21773;SDS011;16087;51.662;6.458;2022-07-30T09:20:33;8.68;;;2.85;;
21773;SDS011;16087;51.662;6.458;2022-07-30T09:27:14;11.48;;;2.90;;
21773;SDS011;16087;51.662;6.458;2022-07-30T09:33:55;8.43;;;2.85;;
21773;SDS011;16087;51.662;6.458;2022-07-30T09:40:36;6.70;;;2.47;;
21773;SDS011;16087;51.662;6.458;2022-07-30T09:47:32;8.90;;;2.33;;
21773;SDS011;16087;51.662;6.458;2022-07-30T09:54:15;9.52;;;2.65;;
21773;SDS011;16087;51.662;6.458;2022-07-30T10:00:56;15.30;;;2.80;;
21773;SDS011;16087;51.662;6.458;2022-07-30T10:07:46;7.97;;;2.30;;
21773;SDS011;16087;51.662;6.458;2022-07-30T10:14:38;9.20;;;2.90;;
21773;SDS011;16087;51.662;6.458;2022-07-30T10:21:23;7.55;;;2.88;;
21773;SDS011;16087;51.662;6.458;2022-07-30T10:28:04;9.10;;;3.33;;
21773;SDS011;16087;51.662;6.458;2022-07-30T10:34:45;9.38;;;2.35;;
21773;SDS011;16087;51.662;6.458;2022-07-30T10:49:11;9.77;;;3.00;;
21773;SDS011;16087;51.662;6.458;2022-07-30T11:03:14;6.53;;;2.03;;
21773;SDS011;16087;51.662;6.458;2022-07-30T11:09:58;4.55;;;2.13;;
21773;SDS011;16087;51.662;6.458;2022-07-30T11:30:04;11.38;;;2.78;;
21773;SDS011;16087;51.662;6.458;2022-07-30T11:37:12;5.88;;;2.80;;
21773;SDS011;16087;51.662;6.458;2022-07-30T11:51:14;7.07;;;2.90;;
21773;SDS011;16087;51.662;6.458;2022-07-30T11:57:55;4.70;;;3.00;;
21773;SDS011;16087;51.662;6.458;2022-07-30T12:04:43;8.63;;;3.45;;
21773;SDS011;16087;51.662;6.458;2022-07-30T12:11:24;9.75;;;2.90;;
21773;SDS011;16087;51.662;6.458;2022-07-30T12:18:11;5.53;;;2.45;;
21773;SDS011;16087;51.662;6.458;2022-07-30T12:24:52;6.13;;;2.95;;
21773;SDS011;16087;51.662;6.458;2022-07-30T12:31:33;7.22;;;3.10;;
21773;SDS011;16087;51.662;6.458;2022-07-30T12:38:15;6.18;;;2.72;;
21773;SDS011;16087;51.662;6.458;2022-07-30T12:44:56;7.15;;;3.15;;
21773;SDS011;16087;51.662;6.458;2022-07-30T12:51:49;10.02;;;3.50;;
21773;SDS011;16087;51.662;6.458;2022-07-30T12:58:35;5.97;;;2.80;;
21773;SDS011;16087;51.662;6.458;2022-07-30T13:05:17;8.60;;;2.95;;
21773;SDS011;16087;51.662;6.458;2022-07-30T13:11:57;3.25;;;2.42;;
21773;SDS011;16087;51.662;6.458;2022-07-30T13:18:38;4.95;;;2.90;;
21773;SDS011;16087;51.662;6.458;2022-07-30T13:25:19;5.82;;;2.40;;
21773;SDS011;16087;51.662;6.458;2022-07-30T13:32:00;5.18;;;2.00;;
21773;SDS011;16087;51.662;6.458;2022-07-30T13:38:41;6.75;;;2.00;;
21773;SDS011;16087;51.662;6.458;2022-07-30T13:45:22;7.28;;;2.05;;
21773;SDS011;16087;51.662;6.458;2022-07-30T13:52:03;6.85;;;1.85;;
21773;SDS011;16087;51.662;6.458;2022-07-30T13:58:44;4.90;;;1.55;;
21773;SDS011;16087;51.662;6.458;2022-07-30T14:05:25;5.93;;;1.83;;
21773;SDS011;16087;51.662;6.458;2022-07-30T14:12:06;5.13;;;2.08;;
21773;SDS011;16087;51.662;6.458;2022-07-30T14:18:47;6.18;;;2.30;;
21773;SDS011;16087;51.662;6.458;2022-07-30T14:25:27;5.07;;;2.03;;
21773;SDS011;16087;51.662;6.458;2022-07-30T14:32:08;6.43;;;2.10;;
21773;SDS011;16087;51.662;6.458;2022-07-30T14:38:49;3.97;;;1.65;;
21773;SDS011;16087;51.662;6.458;2022-07-30T14:45:30;5.75;;;2.20;;
21773;SDS011;16087;51.662;6.458;2022-07-30T14:52:10;6.13;;;2.05;;
21773;SDS011;16087;51.662;6.458;2022-07-30T14:58:51;4.07;;;2.35;;
21773;SDS011;16087;51.662;6.458;2022-07-30T15:05:34;6.00;;;2.33;;
21773;SDS011;16087;51.662;6.458;2022-07-30T15:12:14;4.70;;;1.50;;
21773;SDS011;16087;51.662;6.458;2022-07-30T15:18:55;4.75;;;1.70;;
21773;SDS011;16087;51.662;6.458;2022-07-30T15:25:37;7.90;;;2.00;;
21773;SDS011;16087;51.662;6.458;2022-07-30T15:32:18;6.93;;;2.10;;
21773;SDS011;16087;51.662;6.458;2022-07-30T15:38:59;6.18;;;1.55;;
21773;SDS011;16087;51.662;6.458;2022-07-30T15:45:41;8.45;;;1.85;;
21773;SDS011;16087;51.662;6.458;2022-07-30T15:52:22;6.95;;;2.05;;
21773;SDS011;16087;51.662;6.458;2022-07-30T15:59:03;4.95;;;1.88;;
21773;SDS011;16087;51.662;6.458;2022-07-30T16:05:43;8.18;;;2.20;;
21773;SDS011;16087;51.662;6.458;2022-07-30T16:12:24;5.63;;;2.63;;
21773;SDS011;16087;51.662;6.458;2022-07-30T16:19:05;3.00;;;1.70;;
21773;SDS011;16087;51.662;6.458;2022-07-30T16:25:46;5.55;;;2.20;;
21773;SDS011;16087;51.662;6.458;2022-07-30T16:32:27;4.38;;;2.00;;
21773;SDS011;16087;51.662;6.458;2022-07-30T16:39:07;4.38;;;2.33;;
21773;SDS011;16087;51.662;6.458;2022-07-30T16:45:48;5.30;;;2.58;;
21773;SDS011;16087;51.662;6.458;2022-07-30T16:52:29;5.80;;;2.88;;
21773;SDS011;16087;51.662;6.458;2022-07-30T16:59:10;6.07;;;2.08;;
21773;SDS011;16087;51.662;6.458;2022-07-30T17:05:53;8.18;;;2.40;;
21773;SDS011;16087;51.662;6.458;2022-07-30T17:12:33;8.98;;;2.40;;
21773;SDS011;16087;51.662;6.458;2022-07-30T17:19:14;6.15;;;2.47;;
21773;SDS011;16087;51.662;6.458;2022-07-30T17:25:55;6.13;;;2.60;;
21773;SDS011;16087;51.662;6.458;2022-07-30T17:32:36;8.77;;;2.30;;
21773;SDS011;16087;51.662;6.458;2022-07-30T17:39:17;8.07;;;2.70;;
21773;SDS011;16087;51.662;6.458;2022-07-30T17:45:57;7.95;;;2.28;;
21773;SDS011;16087;51.662;6.458;2022-07-30T17:52:38;6.65;;;2.30;;
21773;SDS011;16087;51.662;6.458;2022-07-30T17:59:19;7.68;;;2.13;;
21773;SDS011;16087;51.662;6.458;2022-07-30T18:06:00;6.30;;;2.22;;
21773;SDS011;16087;51.662;6.458;2022-07-30T18:12:41;7.47;;;2.28;;
21773;SDS011;16087;51.662;6.458;2022-07-30T18:19:22;5.82;;;2.53;;
21773;SDS011;16087;51.662;6.458;2022-07-30T18:26:02;12.65;;;2.40;;
21773;SDS011;16087;51.662;6.458;2022-07-30T18:32:43;5.65;;;2.30;;
21773;SDS011;16087;51.662;6.458;2022-07-30T18:39:24;11.23;;;2.28;;
21773;SDS011;16087;51.662;6.458;2022-07-30T18:46:05;5.30;;;2.10;;
21773;SDS011;16087;51.662;6.458;2022-07-30T18:52:47;8.60;;;2.33;;
21773;SDS011;16087;51.662;6.458;2022-07-30T18:59:28;6.88;;;2.10;;
21773;SDS011;16087;51.662;6.458;2022-07-30T19:06:09;3.92;;;1.83;;
21773;SDS011;16087;51.662;6.458;2022-07-30T19:12:50;4.97;;;2.35;;
21773;SDS011;16087;51.662;6.458;2022-07-30T19:19:30;10.93;;;2.30;;
21773;SDS011;16087;51.662;6.458;2022-07-30T19:26:11;8.52;;;2.17;;
21773;SDS011;16087;51.662;6.458;2022-07-30T19:32:53;10.57;;;2.17;;
21773;SDS011;16087;51.662;6.458;2022-07-30T19:39:34;10.00;;;2.38;;
21773;SDS011;16087;51.662;6.458;2022-07-30T19:46:15;8.48;;;2.15;;
21773;SDS011;16087;51.662;6.458;2022-07-30T19:52:56;6.07;;;2.53;;
21773;SDS011;16087;51.662;6.458;2022-07-30T19:59:38;10.70;;;2.40;;
21773;SDS011;16087;51.662;6.458;2022-07-30T20:06:18;6.93;;;2.40;;
21773;SDS011;16087;51.662;6.458;2022-07-30T20:12:59;12.20;;;4.43;;
21773;SDS011;16087;51.662;6.458;2022-07-30T20:19:40;7.40;;;3.88;;
21773;SDS011;16087;51.662;6.458;2022-07-30T20:26:20;9.18;;;3.42;;
21773;SDS011;16087;51.662;6.458;2022-07-30T20:33:01;6.50;;;3.17;;
21773;SDS011;16087;51.662;6.458;2022-07-30T20:39:42;12.13;;;3.22;;
21773;SDS011;16087;51.662;6.458;2022-07-30T20:46:23;8.88;;;2.80;;
21773;SDS011;16087;51.662;6.458;2022-07-30T20:53:04;10.05;;;2.40;;
21773;SDS011;16087;51.662;6.458;2022-07-30T20:59:44;9.00;;;2.58;;
